sensor_id;sensor_type;location;lat;lon;timestamp;temperature;humidity
23377;DHT22;14353;46.070;13.222;2022-12-17T00:02:35;19.00;51.00
23377;DHT22;14353;46.070;13.222;2022-12-17T00:05:19;19.00;51.00
23377;DHT22;14353;46.070;13.222;2022-12-17T00:08:03;19.00;51.00
23377;DHT22;14353;46.070;13.222;2022-12-17T00:10:50;18.90;51.00
23377;DHT22;14353;46.070;13.222;2022-12-17T00:13:34;18.90;51.00
23377;DHT22;14353;46.070;13.222;2022-12-17T00:16:21;19.00;51.00
23377;DHT22;14353;46.070;13.222;2022-12-17T00:19:06;18.90;51.00
23377;DHT22;14353;46.070;13.222;2022-12-17T00:21:50;18.90;51.00
23377;DHT22;14353;46.070;13.222;2022-12-17T00:24:34;18.90;51.00
23377;DHT22;14353;46.070;13.222;2022-12-17T00:27:35;18.90;51.00
23377;DHT22;14353;46.070;13.222;2022-12-17T00:30:19;18.90;51.00
23377;DHT22;14353;46.070;13.222;2022-12-17T00:33:07;18.90;51.10
23377;DHT22;14353;46.070;13.222;2022-12-17T00:35:52;18.90;51.10
23377;DHT22;14353;46.070;13.222;2022-12-17T00:38:40;18.90;51.00
23377;DHT22;14353;46.070;13.222;2022-12-17T00:41:25;18.90;51.10
23377;DHT22;14353;46.070;13.222;2022-12-17T00:44:11;18.90;51.10
23377;DHT22;14353;46.070;13.222;2022-12-17T00:46:56;18.90;51.20
23377;DHT22;14353;46.070;13.222;2022-12-17T00:49:45;18.80;51.10
23377;DHT22;14353;46.070;13.222;2022-12-17T00:52:30;18.80;51.10
23377;DHT22;14353;46.070;13.222;2022-12-17T00:55:14;18.80;51.10
23377;DHT22;14353;46.070;13.222;2022-12-17T00:58:01;18.80;51.10
23377;DHT22;14353;46.070;13.222;2022-12-17T01:00:46;18.80;51.10
23377;DHT22;14353;46.070;13.222;2022-12-17T01:03:43;18.80;51.10
23377;DHT22;14353;46.070;13.222;2022-12-17T01:06:27;18.80;51.10
23377;DHT22;14353;46.070;13.222;2022-12-17T01:09:12;18.80;51.10
23377;DHT22;14353;46.070;13.222;2022-12-17T01:11:56;18.80;51.10
23377;DHT22;14353;46.070;13.222;2022-12-17T01:14:43;18.80;51.20
23377;DHT22;14353;46.070;13.222;2022-12-17T01:17:27;18.80;51.10
23377;DHT22;14353;46.070;13.222;2022-12-17T01:20:14;18.80;51.70
23377;DHT22;14353;46.070;13.222;2022-12-17T01:23:05;18.80;51.10
23377;DHT22;14353;46.070;13.222;2022-12-17T01:25:56;18.80;51.10
23377;DHT22;14353;46.070;13.222;2022-12-17T01:28:41;18.70;51.10
23377;DHT22;14353;46.070;13.222;2022-12-17T01:31:26;18.80;51.10
23377;DHT22;14353;46.070;13.222;2022-12-17T01:34:13;18.80;51.10
23377;DHT22;14353;46.070;13.222;2022-12-17T01:37:20;18.70;51.10
23377;DHT22;14353;46.070;13.222;2022-12-17T01:40:08;18.70;51.10
23377;DHT22;14353;46.070;13.222;2022-12-17T01:42:53;18.80;51.10
23377;DHT22;14353;46.070;13.222;2022-12-17T01:45:40;18.70;51.10
23377;DHT22;14353;46.070;13.222;2022-12-17T01:48:30;18.80;51.10
23377;DHT22;14353;46.070;13.222;2022-12-17T01:51:16;18.70;51.10
23377;DHT22;14353;46.070;13.222;2022-12-17T01:54:02;18.80;51.10
23377;DHT22;14353;46.070;13.222;2022-12-17T01:56:50;18.80;51.10
23377;DHT22;14353;46.070;13.222;2022-12-17T02:02:58;18.70;51.10
23377;DHT22;14353;46.070;13.222;2022-12-17T02:06:10;18.70;51.10
23377;DHT22;14353;46.070;13.222;2022-12-17T02:12:10;18.70;51.10
23377;DHT22;14353;46.070;13.222;2022-12-17T02:15:02;18.70;51.10
23377;DHT22;14353;46.070;13.222;2022-12-17T02:17:52;18.70;51.10
23377;DHT22;14353;46.070;13.222;2022-12-17T02:20:42;18.70;51.10
23377;DHT22;14353;46.070;13.222;2022-12-17T02:23:50;18.70;51.10
23377;DHT22;14353;46.070;13.222;2022-12-17T02:26:44;18.70;51.10
23377;DHT22;14353;46.070;13.222;2022-12-17T02:29:50;18.60;51.10
23377;DHT22;14353;46.070;13.222;2022-12-17T02:32:41;18.60;51.10
23377;DHT22;14353;46.070;13.222;2022-12-17T02:35:52;18.60;51.10
23377;DHT22;14353;46.070;13.222;2022-12-17T02:38:37;18.60;51.10
23377;DHT22;14353;46.070;13.222;2022-12-17T02:41:46;18.60;51.00
23377;DHT22;14353;46.070;13.222;2022-12-17T02:44:34;18.60;51.10
23377;DHT22;14353;46.070;13.222;2022-12-17T02:47:20;18.60;51.10
23377;DHT22;14353;46.070;13.222;2022-12-17T02:50:07;18.60;51.00
23377;DHT22;14353;46.070;13.222;2022-12-17T02:52:52;18.60;51.00
23377;DHT22;14353;46.070;13.222;2022-12-17T02:55:37;18.60;51.00
23377;DHT22;14353;46.070;13.222;2022-12-17T02:58:21;18.60;51.00
23377;DHT22;14353;46.070;13.222;2022-12-17T03:01:05;18.60;51.00
23377;DHT22;14353;46.070;13.222;2022-12-17T03:03:52;18.60;51.00
23377;DHT22;14353;46.070;13.222;2022-12-17T03:06:49;18.60;51.00
23377;DHT22;14353;46.070;13.222;2022-12-17T03:09:33;18.60;51.00
23377;DHT22;14353;46.070;13.222;2022-12-17T03:12:17;18.60;51.00
23377;DHT22;14353;46.070;13.222;2022-12-17T03:15:01;18.60;51.00
23377;DHT22;14353;46.070;13.222;2022-12-17T03:17:46;18.60;51.00
23377;DHT22;14353;46.070;13.222;2022-12-17T03:20:30;18.60;51.00
23377;DHT22;14353;46.070;13.222;2022-12-17T03:23:14;18.60;51.00
23377;DHT22;14353;46.070;13.222;2022-12-17T03:26:00;18.60;51.00
23377;DHT22;14353;46.070;13.222;2022-12-17T03:28:45;18.60;51.00
23377;DHT22;14353;46.070;13.222;2022-12-17T03:31:29;18.60;51.00
23377;DHT22;14353;46.070;13.222;2022-12-17T03:34:14;18.60;51.00
23377;DHT22;14353;46.070;13.222;2022-12-17T03:37:13;18.60;51.00
23377;DHT22;14353;46.070;13.222;2022-12-17T03:39:58;18.60;51.00
23377;DHT22;14353;46.070;13.222;2022-12-17T03:42:45;18.60;51.00
23377;DHT22;14353;46.070;13.222;2022-12-17T03:45:31;18.60;51.00
23377;DHT22;14353;46.070;13.222;2022-12-17T03:48:16;18.50;51.00
23377;DHT22;14353;46.070;13.222;2022-12-17T03:51:01;18.50;51.00
23377;DHT22;14353;46.070;13.222;2022-12-17T03:53:46;18.60;51.10
23377;DHT22;14353;46.070;13.222;2022-12-17T03:56:30;18.50;51.00
23377;DHT22;14353;46.070;13.222;2022-12-17T03:59:17;18.50;51.00
23377;DHT22;14353;46.070;13.222;2022-12-17T04:02:03;18.50;51.00
23377;DHT22;14353;46.070;13.222;2022-12-17T04:04:47;18.50;51.00
23377;DHT22;14353;46.070;13.222;2022-12-17T04:07:31;18.50;51.00
23377;DHT22;14353;46.070;13.222;2022-12-17T04:10:15;18.50;51.00
23377;DHT22;14353;46.070;13.222;2022-12-17T04:13:00;18.50;51.00
23377;DHT22;14353;46.070;13.222;2022-12-17T04:15:44;18.50;51.00
23377;DHT22;14353;46.070;13.222;2022-12-17T04:18:28;18.50;51.00
23377;DHT22;14353;46.070;13.222;2022-12-17T04:21:13;18.50;51.00
23377;DHT22;14353;46.070;13.222;2022-12-17T04:23:57;18.50;51.00
23377;DHT22;14353;46.070;13.222;2022-12-17T04:26:41;18.50;51.00
23377;DHT22;14353;46.070;13.222;2022-12-17T04:29:26;18.50;51.00
23377;DHT22;14353;46.070;13.222;2022-12-17T04:32:10;18.50;51.00
23377;DHT22;14353;46.070;13.222;2022-12-17T04:34:55;18.50;51.00
23377;DHT22;14353;46.070;13.222;2022-12-17T04:37:39;18.50;51.00
23377;DHT22;14353;46.070;13.222;2022-12-17T04:40:23;18.50;51.00
23377;DHT22;14353;46.070;13.222;2022-12-17T04:43:11;18.40;50.90
23377;DHT22;14353;46.070;13.222;2022-12-17T04:45:56;18.50;51.00
23377;DHT22;14353;46.070;13.222;2022-12-17T04:48:40;18.40;50.90
23377;DHT22;14353;46.070;13.222;2022-12-17T04:51:27;18.40;50.90
23377;DHT22;14353;46.070;13.222;2022-12-17T04:54:12;18.50;51.00
23377;DHT22;14353;46.070;13.222;2022-12-17T04:56:56;18.40;50.90
23377;DHT22;14353;46.070;13.222;2022-12-17T04:59:40;18.50;51.00
23377;DHT22;14353;46.070;13.222;2022-12-17T05:02:25;18.40;50.90
23377;DHT22;14353;46.070;13.222;2022-12-17T05:05:12;18.40;50.90
23377;DHT22;14353;46.070;13.222;2022-12-17T05:07:57;18.40;50.90
23377;DHT22;14353;46.070;13.222;2022-12-17T05:10:41;18.40;50.90
23377;DHT22;14353;46.070;13.222;2022-12-17T05:13:26;18.40;50.90
23377;DHT22;14353;46.070;13.222;2022-12-17T05:16:09;18.40;50.90
23377;DHT22;14353;46.070;13.222;2022-12-17T05:18:55;18.40;50.90
23377;DHT22;14353;46.070;13.222;2022-12-17T05:21:42;18.40;50.80
23377;DHT22;14353;46.070;13.222;2022-12-17T05:24:29;18.40;50.80
23377;DHT22;14353;46.070;13.222;2022-12-17T05:27:16;18.40;50.80
23377;DHT22;14353;46.070;13.222;2022-12-17T05:30:00;18.40;50.80
23377;DHT22;14353;46.070;13.222;2022-12-17T05:32:45;18.40;50.80
23377;DHT22;14353;46.070;13.222;2022-12-17T05:35:28;18.40;50.70
23377;DHT22;14353;46.070;13.222;2022-12-17T05:38:13;18.40;50.70
23377;DHT22;14353;46.070;13.222;2022-12-17T05:40:59;18.40;50.70
23377;DHT22;14353;46.070;13.222;2022-12-17T05:43:43;18.40;50.70
23377;DHT22;14353;46.070;13.222;2022-12-17T05:46:27;18.40;50.70
23377;DHT22;14353;46.070;13.222;2022-12-17T05:49:12;18.40;50.70
23377;DHT22;14353;46.070;13.222;2022-12-17T05:51:56;18.40;50.70
23377;DHT22;14353;46.070;13.222;2022-12-17T05:54:40;18.40;50.70
23377;DHT22;14353;46.070;13.222;2022-12-17T05:57:25;18.30;50.60
23377;DHT22;14353;46.070;13.222;2022-12-17T06:00:13;18.30;50.60
23377;DHT22;14353;46.070;13.222;2022-12-17T06:03:03;18.30;50.60
23377;DHT22;14353;46.070;13.222;2022-12-17T06:05:49;18.30;50.60
23377;DHT22;14353;46.070;13.222;2022-12-17T06:08:38;18.30;50.60
23377;DHT22;14353;46.070;13.222;2022-12-17T06:11:28;18.30;50.60
23377;DHT22;14353;46.070;13.222;2022-12-17T06:14:12;18.30;50.60
23377;DHT22;14353;46.070;13.222;2022-12-17T06:16:59;18.30;50.60
23377;DHT22;14353;46.070;13.222;2022-12-17T06:19:44;18.30;50.60
23377;DHT22;14353;46.070;13.222;2022-12-17T06:22:36;18.30;50.60
23377;DHT22;14353;46.070;13.222;2022-12-17T06:25:23;18.30;50.60
23377;DHT22;14353;46.070;13.222;2022-12-17T06:28:10;18.30;50.50
23377;DHT22;14353;46.070;13.222;2022-12-17T06:30:54;18.30;50.50
23377;DHT22;14353;46.070;13.222;2022-12-17T06:33:41;18.30;50.50
23377;DHT22;14353;46.070;13.222;2022-12-17T06:36:26;18.30;50.40
23377;DHT22;14353;46.070;13.222;2022-12-17T06:39:10;18.40;50.40
23377;DHT22;14353;46.070;13.222;2022-12-17T06:42:02;18.40;50.40
23377;DHT22;14353;46.070;13.222;2022-12-17T06:44:52;18.40;50.40
23377;DHT22;14353;46.070;13.222;2022-12-17T06:47:45;18.40;50.40
23377;DHT22;14353;46.070;13.222;2022-12-17T06:50:31;18.40;50.30
23377;DHT22;14353;46.070;13.222;2022-12-17T06:53:19;18.40;50.40
23377;DHT22;14353;46.070;13.222;2022-12-17T06:59:27;18.40;50.30
23377;DHT22;14353;46.070;13.222;2022-12-17T07:02:18;18.50;50.30
23377;DHT22;14353;46.070;13.222;2022-12-17T07:05:20;18.50;50.40
23377;DHT22;14353;46.070;13.222;2022-12-17T07:08:37;18.50;50.70
23377;DHT22;14353;46.070;13.222;2022-12-17T07:15:06;18.60;51.10
23377;DHT22;14353;46.070;13.222;2022-12-17T07:21:46;18.70;51.20
23377;DHT22;14353;46.070;13.222;2022-12-17T07:31:14;18.80;51.10
23377;DHT22;14353;46.070;13.222;2022-12-17T07:38:07;18.80;51.10
23377;DHT22;14353;46.070;13.222;2022-12-17T07:40:41;18.90;51.10
23377;DHT22;14353;46.070;13.222;2022-12-17T07:50:46;19.00;51.20
23377;DHT22;14353;46.070;13.222;2022-12-17T08:14:25;19.20;51.30
23377;DHT22;14353;46.070;13.222;2022-12-17T08:23:43;19.20;51.40
23377;DHT22;14353;46.070;13.222;2022-12-17T08:41:24;19.40;51.40
23377;DHT22;14353;46.070;13.222;2022-12-17T08:44:19;19.40;51.40
23377;DHT22;14353;46.070;13.222;2022-12-17T08:51:13;19.50;51.40
23377;DHT22;14353;46.070;13.222;2022-12-17T09:01:23;19.50;51.10
23377;DHT22;14353;46.070;13.222;2022-12-17T09:04:07;19.50;51.00
23377;DHT22;14353;46.070;13.222;2022-12-17T09:06:52;19.50;50.90
23377;DHT22;14353;46.070;13.222;2022-12-17T09:09:37;19.50;50.90
23377;DHT22;14353;46.070;13.222;2022-12-17T09:12:22;19.50;50.90
23377;DHT22;14353;46.070;13.222;2022-12-17T09:15:06;19.50;50.90
23377;DHT22;14353;46.070;13.222;2022-12-17T09:17:51;19.50;50.90
23377;DHT22;14353;46.070;13.222;2022-12-17T09:20:38;19.60;50.90
23377;DHT22;14353;46.070;13.222;2022-12-17T09:23:22;19.60;50.90
23377;DHT22;14353;46.070;13.222;2022-12-17T09:26:07;19.60;50.80
23377;DHT22;14353;46.070;13.222;2022-12-17T09:28:55;19.60;50.80
23377;DHT22;14353;46.070;13.222;2022-12-17T09:31:39;19.60;50.70
23377;DHT22;14353;46.070;13.222;2022-12-17T09:34:24;19.60;50.70
23377;DHT22;14353;46.070;13.222;2022-12-17T09:37:09;19.60;50.60
23377;DHT22;14353;46.070;13.222;2022-12-17T09:39:53;19.70;50.50
23377;DHT22;14353;46.070;13.222;2022-12-17T09:42:58;19.60;50.40
23377;DHT22;14353;46.070;13.222;2022-12-17T09:45:57;19.60;50.60
23377;DHT22;14353;46.070;13.222;2022-12-17T09:49:19;19.60;50.10
23377;DHT22;14353;46.070;13.222;2022-12-17T09:52:22;19.60;49.80
23377;DHT22;14353;46.070;13.222;2022-12-17T09:58:01;19.70;49.90
23377;DHT22;14353;46.070;13.222;2022-12-17T10:00:45;19.70;50.10
23377;DHT22;14353;46.070;13.222;2022-12-17T10:03:34;19.70;50.00
23377;DHT22;14353;46.070;13.222;2022-12-17T10:06:22;19.70;49.80
23377;DHT22;14353;46.070;13.222;2022-12-17T10:09:17;19.70;49.80
23377;DHT22;14353;46.070;13.222;2022-12-17T10:12:15;19.70;49.90
23377;DHT22;14353;46.070;13.222;2022-12-17T10:15:02;19.70;49.90
23377;DHT22;14353;46.070;13.222;2022-12-17T10:17:47;19.80;49.90
23377;DHT22;14353;46.070;13.222;2022-12-17T10:20:56;19.70;49.90
23377;DHT22;14353;46.070;13.222;2022-12-17T10:26:25;19.70;49.90
23377;DHT22;14353;46.070;13.222;2022-12-17T10:29:14;19.80;49.90
23377;DHT22;14353;46.070;13.222;2022-12-17T10:38:04;19.80;49.90
23377;DHT22;14353;46.070;13.222;2022-12-17T10:40:53;19.80;49.80
23377;DHT22;14353;46.070;13.222;2022-12-17T10:43:39;19.80;49.80
23377;DHT22;14353;46.070;13.222;2022-12-17T10:46:33;19.80;49.80
23377;DHT22;14353;46.070;13.222;2022-12-17T10:49:22;19.90;49.80
23377;DHT22;14353;46.070;13.222;2022-12-17T10:52:29;19.80;49.70
23377;DHT22;14353;46.070;13.222;2022-12-17T10:55:34;19.80;49.60
23377;DHT22;14353;46.070;13.222;2022-12-17T10:58:52;19.80;49.60
23377;DHT22;14353;46.070;13.222;2022-12-17T11:19:44;19.90;49.80
23377;DHT22;14353;46.070;13.222;2022-12-17T11:22:51;19.90;49.80
23377;DHT22;14353;46.070;13.222;2022-12-17T11:49:19;19.90;49.70
23377;DHT22;14353;46.070;13.222;2022-12-17T12:05:57;20.00;49.40
23377;DHT22;14353;46.070;13.222;2022-12-17T12:12:03;20.00;49.20
23377;DHT22;14353;46.070;13.222;2022-12-17T12:15:02;20.00;49.20
23377;DHT22;14353;46.070;13.222;2022-12-17T12:18:01;20.10;49.40
23377;DHT22;14353;46.070;13.222;2022-12-17T12:21:20;20.10;48.40
23377;DHT22;14353;46.070;13.222;2022-12-17T12:24:32;20.10;48.30
23377;DHT22;14353;46.070;13.222;2022-12-17T12:27:54;20.20;47.30
23377;DHT22;14353;46.070;13.222;2022-12-17T12:34:30;20.80;47.40
23377;DHT22;14353;46.070;13.222;2022-12-17T12:37:17;21.00;47.40
23377;DHT22;14353;46.070;13.222;2022-12-17T12:43:42;21.60;46.60
23377;DHT22;14353;46.070;13.222;2022-12-17T12:46:55;22.00;46.20
23377;DHT22;14353;46.070;13.222;2022-12-17T12:50:14;22.30;45.70
23377;DHT22;14353;46.070;13.222;2022-12-17T12:56:44;22.70;43.70
23377;DHT22;14353;46.070;13.222;2022-12-17T12:59:50;22.70;43.20
23377;DHT22;14353;46.070;13.222;2022-12-17T13:02:37;22.70;42.40
23377;DHT22;14353;46.070;13.222;2022-12-17T13:23:36;22.00;41.50
23377;DHT22;14353;46.070;13.222;2022-12-17T13:37:37;21.80;41.10
23377;DHT22;14353;46.070;13.222;2022-12-17T13:42:53;21.80;41.70
23377;DHT22;14353;46.070;13.222;2022-12-17T13:45:23;21.80;42.10
23377;DHT22;14353;46.070;13.222;2022-12-17T13:47:57;21.80;42.20
23377;DHT22;14353;46.070;13.222;2022-12-17T13:50:29;21.80;42.30
23377;DHT22;14353;46.070;13.222;2022-12-17T13:53:08;21.80;42.30
23377;DHT22;14353;46.070;13.222;2022-12-17T13:55:37;21.80;42.40
23377;DHT22;14353;46.070;13.222;2022-12-17T13:58:03;21.80;42.50
23377;DHT22;14353;46.070;13.222;2022-12-17T14:00:29;21.80;42.50
23377;DHT22;14353;46.070;13.222;2022-12-17T14:03:09;21.80;42.60
23377;DHT22;14353;46.070;13.222;2022-12-17T14:05:46;21.80;42.60
23377;DHT22;14353;46.070;13.222;2022-12-17T14:08:17;21.80;42.70
23377;DHT22;14353;46.070;13.222;2022-12-17T14:10:53;21.80;42.80
23377;DHT22;14353;46.070;13.222;2022-12-17T14:13:46;21.80;42.90
23377;DHT22;14353;46.070;13.222;2022-12-17T14:16:23;21.80;42.90
23377;DHT22;14353;46.070;13.222;2022-12-17T14:18:55;21.80;42.90
23377;DHT22;14353;46.070;13.222;2022-12-17T14:21:21;21.80;42.90
23377;DHT22;14353;46.070;13.222;2022-12-17T14:23:49;21.80;43.00
23377;DHT22;14353;46.070;13.222;2022-12-17T14:26:22;21.80;43.00
23377;DHT22;14353;46.070;13.222;2022-12-17T14:28:51;21.80;43.00
23377;DHT22;14353;46.070;13.222;2022-12-17T14:31:23;21.80;43.00
23377;DHT22;14353;46.070;13.222;2022-12-17T14:34:28;21.80;43.10
23377;DHT22;14353;46.070;13.222;2022-12-17T14:37:00;21.80;43.20
23377;DHT22;14353;46.070;13.222;2022-12-17T14:39:35;21.80;43.20
23377;DHT22;14353;46.070;13.222;2022-12-17T14:42:14;21.80;43.20
23377;DHT22;14353;46.070;13.222;2022-12-17T14:44:55;21.80;43.30
23377;DHT22;14353;46.070;13.222;2022-12-17T14:47:34;21.80;43.30
23377;DHT22;14353;46.070;13.222;2022-12-17T14:50:29;21.80;43.30
23377;DHT22;14353;46.070;13.222;2022-12-17T14:52:59;21.80;43.30
23377;DHT22;14353;46.070;13.222;2022-12-17T14:55:37;21.80;43.40
23377;DHT22;14353;46.070;13.222;2022-12-17T14:58:19;21.80;43.50
23377;DHT22;14353;46.070;13.222;2022-12-17T15:01:05;21.70;43.50
23377;DHT22;14353;46.070;13.222;2022-12-17T15:03:37;21.70;43.50
23377;DHT22;14353;46.070;13.222;2022-12-17T15:06:07;21.70;43.60
23377;DHT22;14353;46.070;13.222;2022-12-17T15:08:45;21.70;43.70
23377;DHT22;14353;46.070;13.222;2022-12-17T15:11:35;21.60;43.70
23377;DHT22;14353;46.070;13.222;2022-12-17T15:14:01;21.60;43.80
23377;DHT22;14353;46.070;13.222;2022-12-17T15:16:29;21.50;43.80
23377;DHT22;14353;46.070;13.222;2022-12-17T15:18:58;21.50;43.90
23377;DHT22;14353;46.070;13.222;2022-12-17T15:21:28;21.50;43.90
23377;DHT22;14353;46.070;13.222;2022-12-17T15:23:54;21.40;44.00
23377;DHT22;14353;46.070;13.222;2022-12-17T15:26:25;21.40;44.00
23377;DHT22;14353;46.070;13.222;2022-12-17T15:28:54;21.40;44.00
23377;DHT22;14353;46.070;13.222;2022-12-17T15:31:28;21.40;44.00
23377;DHT22;14353;46.070;13.222;2022-12-17T15:33:54;21.30;44.00
23377;DHT22;14353;46.070;13.222;2022-12-17T15:36:31;21.30;44.10
23377;DHT22;14353;46.070;13.222;2022-12-17T15:38:57;21.30;44.10
23377;DHT22;14353;46.070;13.222;2022-12-17T15:41:26;21.30;44.20
23377;DHT22;14353;46.070;13.222;2022-12-17T15:44:11;21.20;44.20
23377;DHT22;14353;46.070;13.222;2022-12-17T15:49:35;21.20;44.20
23377;DHT22;14353;46.070;13.222;2022-12-17T15:52:02;21.10;44.30
23377;DHT22;14353;46.070;13.222;2022-12-17T15:54:28;21.10;44.40
23377;DHT22;14353;46.070;13.222;2022-12-17T15:56:57;21.10;44.30
23377;DHT22;14353;46.070;13.222;2022-12-17T15:59:23;21.10;44.40
23377;DHT22;14353;46.070;13.222;2022-12-17T16:01:51;21.10;44.50
23377;DHT22;14353;46.070;13.222;2022-12-17T16:04:22;21.00;44.40
23377;DHT22;14353;46.070;13.222;2022-12-17T16:06:57;21.00;44.40
23377;DHT22;14353;46.070;13.222;2022-12-17T16:09:25;21.00;44.40
23377;DHT22;14353;46.070;13.222;2022-12-17T16:11:52;21.00;44.40
23377;DHT22;14353;46.070;13.222;2022-12-17T16:14:19;20.90;44.40
23377;DHT22;14353;46.070;13.222;2022-12-17T16:16:45;20.90;44.40
23377;DHT22;14353;46.070;13.222;2022-12-17T16:19:11;20.90;44.50
23377;DHT22;14353;46.070;13.222;2022-12-17T16:21:43;20.90;44.60
23377;DHT22;14353;46.070;13.222;2022-12-17T16:24:17;20.90;44.60
23377;DHT22;14353;46.070;13.222;2022-12-17T16:26:46;20.80;44.60
23377;DHT22;14353;46.070;13.222;2022-12-17T16:29:15;20.80;44.70
23377;DHT22;14353;46.070;13.222;2022-12-17T16:31:50;20.80;44.70
23377;DHT22;14353;46.070;13.222;2022-12-17T16:34:16;20.80;44.70
23377;DHT22;14353;46.070;13.222;2022-12-17T16:36:42;20.80;44.80
23377;DHT22;14353;46.070;13.222;2022-12-17T16:39:16;20.80;44.80
23377;DHT22;14353;46.070;13.222;2022-12-17T16:41:43;20.70;44.80
23377;DHT22;14353;46.070;13.222;2022-12-17T16:44:15;20.70;44.80
23377;DHT22;14353;46.070;13.222;2022-12-17T16:46:42;20.70;45.50
23377;DHT22;14353;46.070;13.222;2022-12-17T16:49:20;20.70;44.90
23377;DHT22;14353;46.070;13.222;2022-12-17T16:51:52;20.70;45.00
23377;DHT22;14353;46.070;13.222;2022-12-17T16:54:23;20.70;45.00
23377;DHT22;14353;46.070;13.222;2022-12-17T16:57:02;20.70;45.00
23377;DHT22;14353;46.070;13.222;2022-12-17T16:59:28;20.60;44.90
23377;DHT22;14353;46.070;13.222;2022-12-17T17:02:00;20.60;44.90
23377;DHT22;14353;46.070;13.222;2022-12-17T17:04:35;20.60;45.00
23377;DHT22;14353;46.070;13.222;2022-12-17T17:07:04;20.60;45.00
23377;DHT22;14353;46.070;13.222;2022-12-17T17:09:32;20.60;45.00
23377;DHT22;14353;46.070;13.222;2022-12-17T17:12:01;20.60;45.00
23377;DHT22;14353;46.070;13.222;2022-12-17T17:14:27;20.60;45.00
23377;DHT22;14353;46.070;13.222;2022-12-17T17:16:53;20.60;45.00
23377;DHT22;14353;46.070;13.222;2022-12-17T17:19:22;20.50;45.00
23377;DHT22;14353;46.070;13.222;2022-12-17T17:21:52;20.50;45.00
23377;DHT22;14353;46.070;13.222;2022-12-17T17:24:28;20.50;45.00
23377;DHT22;14353;46.070;13.222;2022-12-17T17:26:55;20.50;45.00
23377;DHT22;14353;46.070;13.222;2022-12-17T17:29:21;20.50;45.10
23377;DHT22;14353;46.070;13.222;2022-12-17T17:32:13;20.50;45.10
23377;DHT22;14353;46.070;13.222;2022-12-17T17:34:39;20.50;45.10
23377;DHT22;14353;46.070;13.222;2022-12-17T17:37:10;20.50;45.10
23377;DHT22;14353;46.070;13.222;2022-12-17T17:39:35;20.50;45.10
23377;DHT22;14353;46.070;13.222;2022-12-17T17:42:19;20.40;45.10
23377;DHT22;14353;46.070;13.222;2022-12-17T17:44:45;20.50;45.10
23377;DHT22;14353;46.070;13.222;2022-12-17T17:47:18;20.40;45.10
23377;DHT22;14353;46.070;13.222;2022-12-17T17:49:44;20.40;45.20
23377;DHT22;14353;46.070;13.222;2022-12-17T17:52:10;20.40;45.20
23377;DHT22;14353;46.070;13.222;2022-12-17T17:54:38;20.40;45.20
23377;DHT22;14353;46.070;13.222;2022-12-17T17:57:06;20.40;45.20
23377;DHT22;14353;46.070;13.222;2022-12-17T17:59:32;20.40;45.30
23377;DHT22;14353;46.070;13.222;2022-12-17T18:01:58;20.40;45.30
23377;DHT22;14353;46.070;13.222;2022-12-17T18:04:24;20.30;45.20
23377;DHT22;14353;46.070;13.222;2022-12-17T18:06:50;20.30;45.20
23377;DHT22;14353;46.070;13.222;2022-12-17T18:09:32;20.30;45.20
23377;DHT22;14353;46.070;13.222;2022-12-17T18:11:58;20.30;45.30
23377;DHT22;14353;46.070;13.222;2022-12-17T18:14:43;20.30;45.30
23377;DHT22;14353;46.070;13.222;2022-12-17T18:17:09;20.30;45.30
23377;DHT22;14353;46.070;13.222;2022-12-17T18:19:35;20.30;45.30
23377;DHT22;14353;46.070;13.222;2022-12-17T18:22:04;20.20;45.20
23377;DHT22;14353;46.070;13.222;2022-12-17T18:24:32;20.30;45.30
23377;DHT22;14353;46.070;13.222;2022-12-17T18:27:04;20.20;45.20
23377;DHT22;14353;46.070;13.222;2022-12-17T18:29:30;20.20;45.20
23377;DHT22;14353;46.070;13.222;2022-12-17T18:31:59;20.20;45.20
23377;DHT22;14353;46.070;13.222;2022-12-17T18:34:31;20.20;45.30
23377;DHT22;14353;46.070;13.222;2022-12-17T18:36:58;20.20;45.30
23377;DHT22;14353;46.070;13.222;2022-12-17T18:39:25;20.20;45.30
23377;DHT22;14353;46.070;13.222;2022-12-17T18:41:56;20.20;45.30
23377;DHT22;14353;46.070;13.222;2022-12-17T18:44:46;20.20;45.40
23377;DHT22;14353;46.070;13.222;2022-12-17T18:47:12;20.10;45.30
23377;DHT22;14353;46.070;13.222;2022-12-17T18:49:41;20.10;45.30
23377;DHT22;14353;46.070;13.222;2022-12-17T18:52:13;20.10;45.40
23377;DHT22;14353;46.070;13.222;2022-12-17T18:54:42;20.10;45.30
23377;DHT22;14353;46.070;13.222;2022-12-17T18:57:08;20.10;45.40
23377;DHT22;14353;46.070;13.222;2022-12-17T18:59:54;20.10;45.40
23377;DHT22;14353;46.070;13.222;2022-12-17T19:02:20;20.10;45.40
23377;DHT22;14353;46.070;13.222;2022-12-17T19:04:45;20.00;45.40
23377;DHT22;14353;46.070;13.222;2022-12-17T19:07:13;20.00;45.40
23377;DHT22;14353;46.070;13.222;2022-12-17T19:09:42;20.00;45.00
23377;DHT22;14353;46.070;13.222;2022-12-17T19:12:09;20.00;45.40
23377;DHT22;14353;46.070;13.222;2022-12-17T19:14:38;20.00;45.40
23377;DHT22;14353;46.070;13.222;2022-12-17T19:17:04;20.00;45.40
23377;DHT22;14353;46.070;13.222;2022-12-17T19:19:32;19.90;45.40
23377;DHT22;14353;46.070;13.222;2022-12-17T19:21:58;19.90;45.50
23377;DHT22;14353;46.070;13.222;2022-12-17T19:24:28;19.90;45.50
23377;DHT22;14353;46.070;13.222;2022-12-17T19:26:54;19.90;45.50
23377;DHT22;14353;46.070;13.222;2022-12-17T19:29:22;19.90;45.50
23377;DHT22;14353;46.070;13.222;2022-12-17T19:31:48;19.90;45.60
23377;DHT22;14353;46.070;13.222;2022-12-17T19:34:16;19.80;45.60
23377;DHT22;14353;46.070;13.222;2022-12-17T19:36:42;19.80;45.60
23377;DHT22;14353;46.070;13.222;2022-12-17T19:39:19;19.80;45.60
23377;DHT22;14353;46.070;13.222;2022-12-17T19:41:53;19.80;45.60
23377;DHT22;14353;46.070;13.222;2022-12-17T19:44:25;19.80;45.70
23377;DHT22;14353;46.070;13.222;2022-12-17T19:47:01;19.70;45.70
23377;DHT22;14353;46.070;13.222;2022-12-17T19:49:34;19.70;45.70
23377;DHT22;14353;46.070;13.222;2022-12-17T19:52:02;19.70;45.70
23377;DHT22;14353;46.070;13.222;2022-12-17T19:54:28;19.70;45.70
23377;DHT22;14353;46.070;13.222;2022-12-17T19:56:56;19.70;45.80
23377;DHT22;14353;46.070;13.222;2022-12-17T19:59:28;19.70;45.80
23377;DHT22;14353;46.070;13.222;2022-12-17T20:01:54;19.70;45.80
23377;DHT22;14353;46.070;13.222;2022-12-17T20:04:20;19.60;45.80
23377;DHT22;14353;46.070;13.222;2022-12-17T20:06:51;19.60;45.80
23377;DHT22;14353;46.070;13.222;2022-12-17T20:09:16;19.60;45.80
23377;DHT22;14353;46.070;13.222;2022-12-17T20:11:48;19.60;45.90